Time;durP1;ratioP1;P1;durP2;ratioP2;P2;SDS_P1;SDS_P2;PMS_P1;PMS_P2;Temp;Humidity;BMP_temperature;BMP_pressure;BME280_temperature;BME280_humidity;BME280_pressure;Samples;Min_cycle;Max_cycle;Signal;HPM_P1;HPM_P2
2022/02/12 00:00:32;;;;;;;15.57;10.02;;;;;;;;;;5033355;28;20056;-74
2022/02/12 00:03:01;;;;;;;19.38;10.38;;;;;;;;;;5031665;28;20041;-75
2022/02/12 00:05:28;;;;;;;16.88;10.50;;;;;;;;;;5033121;28;20463;-73
2022/02/12 00:07:57;;;;;;;16.02;9.70;;;;;;;;;;5033183;28;20561;-72
2022/02/12 00:10:26;;;;;;;18.58;10.45;;;;;;;;;;5033086;28;20047;-72
2022/02/12 00:12:55;;;;;;;18.75;9.90;;;;;;;;;;5031441;28;20049;-75
2022/02/12 00:15:22;;;;;;;16.67;10.30;;;;;;;;;;5032716;28;20041;-74
2022/02/12 00:17:51;;;;;;;17.92;10.25;;;;;;;;;;5015197;28;20076;-74
2022/02/12 00:20:19;;;;;;;16.58;10.23;;;;;;;;;;5032941;28;20057;-75
2022/02/12 00:22:46;;;;;;;14.52;9.60;;;;;;;;;;5031709;28;20045;-73
2022/02/12 00:25:14;;;;;;;15.73;10.00;;;;;;;;;;5033023;28;20046;-73
2022/02/12 00:27:41;;;;;;;19.05;10.15;;;;;;;;;;5014967;28;20044;-72
2022/02/12 00:30:09;;;;;;;19.50;10.43;;;;;;;;;;5015616;28;20418;-73
2022/02/12 00:32:37;;;;;;;16.75;9.88;;;;;;;;;;5015458;28;20416;-72
2022/02/12 00:35:04;;;;;;;21.38;10.65;;;;;;;;;;4998982;28;20033;-72
2022/02/12 00:37:32;;;;;;;16.75;10.00;;;;;;;;;;5015448;28;20041;-74
2022/02/12 00:40:00;;;;;;;17.33;10.77;;;;;;;;;;5015708;28;20041;-77
2022/02/12 00:42:28;;;;;;;17.02;9.70;;;;;;;;;;5015644;28;20400;-73
2022/02/12 00:44:56;;;;;;;18.55;10.35;;;;;;;;;;5015433;28;20060;-73
2022/02/12 00:47:24;;;;;;;15.98;9.98;;;;;;;;;;4999113;28;20054;-73
2022/02/12 00:49:52;;;;;;;17.60;9.60;;;;;;;;;;5014773;28;20057;-75
2022/02/12 00:52:22;;;;;;;16.15;10.18;;;;;;;;;;5015249;28;20053;-77
2022/02/12 00:54:50;;;;;;;15.35;9.20;;;;;;;;;;5015341;28;20053;-74
2022/02/12 00:57:18;;;;;;;20.42;9.88;;;;;;;;;;5032747;28;20045;-77
2022/02/12 00:59:45;;;;;;;15.43;8.95;;;;;;;;;;5032617;28;20045;-76
2022/02/12 01:02:13;;;;;;;20.45;8.43;;;;;;;;;;5015054;28;20052;-73
2022/02/12 01:04:41;;;;;;;12.02;8.82;;;;;;;;;;5015233;28;20040;-74
2022/02/12 01:07:08;;;;;;;12.23;8.35;;;;;;;;;;5015145;28;20120;-75
2022/02/12 01:09:37;;;;;;;13.55;8.10;;;;;;;;;;5014954;28;20052;-75
2022/02/12 01:12:06;;;;;;;13.73;8.65;;;;;;;;;;5032513;28;20056;-74
2022/02/12 01:14:33;;;;;;;13.60;7.68;;;;;;;;;;5014210;28;20045;-76
2022/02/12 01:17:01;;;;;;;11.70;7.47;;;;;;;;;;5015181;28;20412;-74
2022/02/12 01:19:28;;;;;;;11.68;7.68;;;;;;;;;;5032491;28;20072;-75
2022/02/12 01:21:56;;;;;;;12.57;7.50;;;;;;;;;;5032386;28;20094;-74
2022/02/12 01:24:23;;;;;;;11.60;7.45;;;;;;;;;;5032985;28;20057;-73
2022/02/12 01:26:56;;;;;;;15.02;7.80;;;;;;;;;;5032219;28;20117;-75
2022/02/12 01:29:23;;;;;;;12.97;7.13;;;;;;;;;;5014496;28;20481;-72
2022/02/12 01:31:51;;;;;;;12.90;7.07;;;;;;;;;;5032351;28;20045;-76
2022/02/12 01:34:20;;;;;;;12.07;7.57;;;;;;;;;;5014575;28;20046;-74
2022/02/12 01:36:48;;;;;;;11.57;7.07;;;;;;;;;;5032182;28;20047;-76
2022/02/12 01:39:16;;;;;;;11.90;7.05;;;;;;;;;;5032735;28;20415;-73
2022/02/12 01:41:46;;;;;;;10.77;6.80;;;;;;;;;;5036698;28;20139;-75
2022/02/12 01:44:14;;;;;;;12.70;6.93;;;;;;;;;;5036398;28;20072;-76
2022/02/12 01:46:41;;;;;;;8.57;6.53;;;;;;;;;;5018804;28;20076;-73
2022/02/12 01:49:09;;;;;;;10.77;6.57;;;;;;;;;;5036319;28;20124;-75
2022/02/12 01:51:38;;;;;;;11.35;6.28;;;;;;;;;;5001412;28;20046;-74
2022/02/12 01:54:06;;;;;;;12.70;6.68;;;;;;;;;;5026986;28;20121;-75
2022/02/12 01:56:34;;;;;;;12.45;6.32;;;;;;;;;;5020087;28;20033;-74
2022/02/12 01:59:02;;;;;;;10.27;6.30;;;;;;;;;;5014651;28;20046;-76
2022/02/12 02:01:29;;;;;;;12.82;5.82;;;;;;;;;;5014894;28;20038;-74
2022/02/12 02:03:57;;;;;;;9.55;6.45;;;;;;;;;;5016459;28;20049;-76
2022/02/12 02:06:25;;;;;;;9.85;6.75;;;;;;;;;;5015031;28;20061;-76
2022/02/12 02:08:53;;;;;;;9.40;5.90;;;;;;;;;;5016270;28;20042;-74
2022/02/12 02:11:22;;;;;;;8.15;6.00;;;;;;;;;;5014544;28;20049;-75
2022/02/12 02:13:53;;;;;;;11.15;6.45;;;;;;;;;;5019777;28;20045;-74
2022/02/12 02:16:20;;;;;;;15.77;5.97;;;;;;;;;;5014439;28;20046;-74
2022/02/12 02:18:48;;;;;;;10.73;5.70;;;;;;;;;;4998127;28;20453;-75
2022/02/12 02:21:19;;;;;;;7.50;5.50;;;;;;;;;;5023377;28;20037;-74
2022/02/12 02:23:46;;;;;;;8.40;5.05;;;;;;;;;;5025382;28;20053;-74
2022/02/12 02:26:14;;;;;;;10.05;5.35;;;;;;;;;;5025390;28;20104;-77
2022/02/12 02:28:42;;;;;;;9.60;5.57;;;;;;;;;;5019843;28;20038;-72
2022/02/12 02:31:11;;;;;;;10.55;6.00;;;;;;;;;;5023994;28;20515;-75
2022/02/12 02:33:38;;;;;;;9.27;5.57;;;;;;;;;;5024109;28;20041;-74
2022/02/12 02:36:09;;;;;;;7.13;5.00;;;;;;;;;;5022083;28;20033;-75
2022/02/12 02:38:37;;;;;;;7.38;5.25;;;;;;;;;;5029659;28;20119;-75
2022/02/12 02:41:05;;;;;;;7.32;4.88;;;;;;;;;;5033161;28;20133;-76
2022/02/12 02:43:32;;;;;;;9.77;4.70;;;;;;;;;;5033506;28;20045;-74
2022/02/12 02:46:00;;;;;;;10.20;5.47;;;;;;;;;;5033655;28;20416;-74
2022/02/12 02:48:28;;;;;;;7.43;4.72;;;;;;;;;;5034966;28;20045;-74
2022/02/12 02:56:29;;;;;;;7.07;4.60;;;;;;;;;;5034958;28;20155;-73
2022/02/12 02:58:59;;;;;;;6.47;4.53;;;;;;;;;;5034686;28;20053;-74
2022/02/12 03:01:30;;;;;;;8.40;5.40;;;;;;;;;;5033306;28;20080;-72
2022/02/12 03:03:58;;;;;;;7.75;4.70;;;;;;;;;;5033529;28;20095;-75
2022/02/12 03:06:26;;;;;;;8.32;4.80;;;;;;;;;;5034795;28;20448;-74
2022/02/12 03:08:54;;;;;;;8.15;5.13;;;;;;;;;;5033435;28;20041;-76
2022/02/12 03:11:22;;;;;;;9.00;4.90;;;;;;;;;;5034740;28;20049;-74
2022/02/12 03:13:50;;;;;;;6.93;5.15;;;;;;;;;;5033843;28;20526;-74
2022/02/12 03:16:18;;;;;;;7.70;4.90;;;;;;;;;;5034573;28;20381;-74
2022/02/12 03:18:47;;;;;;;8.65;5.43;;;;;;;;;;5034399;28;20412;-72
2022/02/12 03:21:15;;;;;;;13.65;6.53;;;;;;;;;;5033090;28;20132;-74
2022/02/12 03:23:43;;;;;;;10.10;5.55;;;;;;;;;;5034817;28;20042;-76
2022/02/12 03:26:11;;;;;;;9.70;6.13;;;;;;;;;;5032746;28;20049;-73
2022/02/12 03:28:40;;;;;;;12.90;6.47;;;;;;;;;;5034506;28;20051;-72
2022/02/12 03:31:08;;;;;;;12.50;6.63;;;;;;;;;;5032682;28;20053;-74
2022/02/12 03:33:35;;;;;;;8.60;6.00;;;;;;;;;;5034325;28;20052;-75
2022/02/12 03:36:05;;;;;;;10.65;5.90;;;;;;;;;;5034424;28;20047;-74
2022/02/12 03:38:35;;;;;;;8.35;6.57;;;;;;;;;;5034149;28;20048;-72
2022/02/12 03:41:04;;;;;;;11.73;6.30;;;;;;;;;;5033134;28;20484;-75
2022/02/12 03:43:33;;;;;;;12.80;6.32;;;;;;;;;;5034385;28;20038;-74
2022/02/12 03:46:01;;;;;;;10.75;6.28;;;;;;;;;;5033972;28;20208;-72
2022/02/12 03:48:29;;;;;;;9.38;6.50;;;;;;;;;;5032621;28;20143;-75
2022/02/12 03:50:57;;;;;;;10.68;6.47;;;;;;;;;;5032286;28;20466;-72
2022/02/12 03:53:25;;;;;;;8.02;6.28;;;;;;;;;;5032700;28;20052;-74
2022/02/12 03:55:52;;;;;;;9.52;6.35;;;;;;;;;;5032433;28;20410;-74
2022/02/12 03:58:21;;;;;;;13.05;6.72;;;;;;;;;;5032263;28;20115;-74
2022/02/12 04:00:49;;;;;;;11.75;6.57;;;;;;;;;;5032421;28;20457;-76
2022/02/12 04:03:17;;;;;;;9.98;6.50;;;;;;;;;;5031820;28;20583;-74
2022/02/12 04:05:45;;;;;;;12.30;6.88;;;;;;;;;;5032294;28;20477;-74
2022/02/12 04:08:17;;;;;;;9.70;6.47;;;;;;;;;;5033374;28;20124;-72
2022/02/12 04:10:46;;;;;;;11.57;6.68;;;;;;;;;;5033668;28;20083;-75
2022/02/12 04:13:13;;;;;;;16.98;6.45;;;;;;;;;;5032486;28;20080;-73
2022/02/12 04:15:41;;;;;;;10.73;6.55;;;;;;;;;;5033207;28;20116;-73
2022/02/12 04:18:09;;;;;;;13.25;7.47;;;;;;;;;;5033478;28;20043;-73
2022/02/12 04:20:37;;;;;;;11.18;6.78;;;;;;;;;;5033559;28;20046;-71
2022/02/12 04:23:06;;;;;;;10.70;7.18;;;;;;;;;;5030544;28;20466;-74
2022/02/12 04:25:33;;;;;;;12.00;6.93;;;;;;;;;;5031849;28;20049;-72
2022/02/12 04:28:06;;;;;;;13.90;7.05;;;;;;;;;;5033043;28;20128;-76
2022/02/12 04:30:36;;;;;;;11.55;7.18;;;;;;;;;;5031693;28;20144;-74
2022/02/12 04:33:05;;;;;;;11.18;6.82;;;;;;;;;;5031978;28;20073;-74
2022/02/12 04:35:32;;;;;;;10.23;6.85;;;;;;;;;;5031394;28;20037;-75
2022/02/12 04:38:00;;;;;;;8.35;6.57;;;;;;;;;;5033041;28;20095;-74
2022/02/12 04:40:30;;;;;;;7.82;6.40;;;;;;;;;;5033119;28;20412;-74
2022/02/12 04:42:58;;;;;;;11.18;6.80;;;;;;;;;;5031823;28;20049;-72
2022/02/12 04:45:25;;;;;;;9.52;6.47;;;;;;;;;;5033164;28;20129;-74
2022/02/12 04:47:53;;;;;;;11.23;6.85;;;;;;;;;;5031314;28;20045;-74
2022/02/12 04:50:22;;;;;;;10.73;6.88;;;;;;;;;;5032555;28;20124;-76
2022/02/12 04:52:50;;;;;;;11.68;6.90;;;;;;;;;;5031572;28;20090;-73
2022/02/12 04:55:18;;;;;;;12.68;8.07;;;;;;;;;;5032462;28;20469;-72
2022/02/12 04:57:45;;;;;;;10.50;7.15;;;;;;;;;;5031263;28;20474;-76
2022/02/12 05:00:13;;;;;;;11.45;7.50;;;;;;;;;;5031024;28;20050;-73
2022/02/12 05:02:41;;;;;;;14.13;8.02;;;;;;;;;;5031216;28;20033;-73
2022/02/12 05:05:09;;;;;;;13.07;7.63;;;;;;;;;;5030909;28;20128;-74
2022/02/12 05:07:37;;;;;;;12.45;8.10;;;;;;;;;;5031155;28;20045;-72
2022/02/12 05:10:05;;;;;;;13.73;7.65;;;;;;;;;;5031131;28;20588;-74
2022/02/12 05:12:32;;;;;;;16.00;10.32;;;;;;;;;;5032265;28;20045;-72
2022/02/12 05:15:00;;;;;;;13.23;8.35;;;;;;;;;;5031839;28;20052;-74
2022/02/12 05:17:28;;;;;;;15.52;8.05;;;;;;;;;;5031394;28;20038;-72
2022/02/12 05:19:55;;;;;;;13.60;7.80;;;;;;;;;;5030944;28;20068;-72
2022/02/12 05:22:24;;;;;;;9.55;6.97;;;;;;;;;;5030837;28;20048;-74
2022/02/12 05:24:51;;;;;;;15.27;7.13;;;;;;;;;;5031010;28;20132;-73
2022/02/12 05:27:19;;;;;;;14.38;7.53;;;;;;;;;;5031884;28;20045;-73
2022/02/12 05:29:47;;;;;;;15.50;8.02;;;;;;;;;;5032276;28;20121;-76
2022/02/12 05:32:15;;;;;;;19.20;10.75;;;;;;;;;;5032414;28;20037;-76
2022/02/12 05:34:42;;;;;;;16.65;9.90;;;;;;;;;;5032150;28;20041;-74
2022/02/12 05:37:10;;;;;;;12.05;7.55;;;;;;;;;;5030829;28;20068;-72
2022/02/12 05:39:38;;;;;;;12.77;7.45;;;;;;;;;;5030777;28;20436;-74
2022/02/12 05:42:05;;;;;;;10.15;7.00;;;;;;;;;;5030958;28;20041;-73
2022/02/12 05:44:33;;;;;;;9.65;6.28;;;;;;;;;;5032388;28;20064;-73
2022/02/12 05:47:00;;;;;;;13.90;6.78;;;;;;;;;;5030690;28;20042;-76
2022/02/12 05:49:28;;;;;;;12.38;7.55;;;;;;;;;;5032059;28;20037;-72
2022/02/12 05:52:01;;;;;;;11.23;7.20;;;;;;;;;;5024840;28;20048;-77
2022/02/12 05:54:28;;;;;;;11.63;7.05;;;;;;;;;;5007935;28;20378;-76
2022/02/12 05:56:56;;;;;;;10.85;7.05;;;;;;;;;;5029826;28;20048;-76
2022/02/12 05:59:23;;;;;;;12.88;7.57;;;;;;;;;;5033500;28;20055;-74
2022/02/12 06:01:52;;;;;;;14.02;7.30;;;;;;;;;;5051869;28;20124;-74
2022/02/12 06:04:20;;;;;;;16.52;9.45;;;;;;;;;;5050159;28;20044;-73
2022/02/12 06:06:47;;;;;;;17.08;10.63;;;;;;;;;;5051918;28;20463;-76
2022/02/12 06:09:15;;;;;;;24.00;11.75;;;;;;;;;;5051864;28;20047;-75
2022/02/12 06:11:42;;;;;;;19.55;11.70;;;;;;;;;;5050575;28;20132;-76
2022/02/12 06:14:10;;;;;;;21.38;11.23;;;;;;;;;;5049587;28;20049;-76
2022/02/12 06:16:39;;;;;;;22.13;12.05;;;;;;;;;;5051771;28;20084;-76
2022/02/12 06:19:06;;;;;;;19.92;10.75;;;;;;;;;;5051598;28;20408;-74
2022/02/12 06:21:34;;;;;;;15.52;9.52;;;;;;;;;;5051208;28;20056;-74
2022/02/12 06:24:01;;;;;;;19.33;10.57;;;;;;;;;;5020452;28;20056;-74
2022/02/12 06:26:29;;;;;;;16.27;10.05;;;;;;;;;;5012427;28;20065;-74
2022/02/12 06:28:57;;;;;;;20.75;9.15;;;;;;;;;;5015379;28;20041;-75
2022/02/12 06:31:24;;;;;;;18.70;9.60;;;;;;;;;;5013780;28;20492;-77
2022/02/12 06:33:52;;;;;;;14.65;9.25;;;;;;;;;;5015726;28;20056;-75
2022/02/12 06:36:20;;;;;;;15.95;9.43;;;;;;;;;;5014964;28;20049;-76
2022/02/12 06:38:48;;;;;;;16.95;9.85;;;;;;;;;;5015063;28;20046;-75
2022/02/12 06:41:16;;;;;;;15.07;10.05;;;;;;;;;;5014074;28;20038;-75
2022/02/12 06:43:43;;;;;;;18.15;11.10;;;;;;;;;;5013822;28;20041;-75
2022/02/12 06:46:13;;;;;;;22.58;11.38;;;;;;;;;;5015094;28;20054;-73
2022/02/12 06:48:42;;;;;;;19.83;11.02;;;;;;;;;;5015083;28;20042;-75
2022/02/12 06:51:10;;;;;;;24.77;12.90;;;;;;;;;;5014880;28;20045;-75
2022/02/12 06:53:38;;;;;;;20.98;12.88;;;;;;;;;;5013723;28;20041;-75
2022/02/12 06:56:06;;;;;;;23.00;13.35;;;;;;;;;;5013144;28;20038;-74
2022/02/12 06:58:39;;;;;;;21.83;13.73;;;;;;;;;;5013573;28;20038;-76
2022/02/12 07:01:06;;;;;;;25.40;13.85;;;;;;;;;;5014826;28;20359;-74
2022/02/12 07:03:34;;;;;;;23.13;13.85;;;;;;;;;;5014068;28;20034;-73
2022/02/12 07:06:01;;;;;;;22.80;13.85;;;;;;;;;;5013564;28;20501;-75
2022/02/12 07:08:29;;;;;;;23.60;13.70;;;;;;;;;;5013681;28;20560;-73
2022/02/12 07:10:57;;;;;;;19.77;12.88;;;;;;;;;;5013254;28;20060;-74
2022/02/12 07:13:24;;;;;;;21.98;13.60;;;;;;;;;;5014595;28;20046;-75
2022/02/12 07:15:52;;;;;;;23.48;12.80;;;;;;;;;;5014428;28;20081;-77
2022/02/12 07:18:23;;;;;;;19.23;12.15;;;;;;;;;;4996185;28;20044;-76
2022/02/12 07:20:57;;;;;;;20.85;12.30;;;;;;;;;;5013129;28;20129;-76
2022/02/12 07:23:25;;;;;;;18.02;12.18;;;;;;;;;;5014724;28;20485;-77
2022/02/12 07:25:53;;;;;;;21.48;12.93;;;;;;;;;;5013297;28;20038;-75
2022/02/12 07:28:24;;;;;;;20.85;12.48;;;;;;;;;;5014012;28;20065;-75
2022/02/12 07:30:52;;;;;;;22.83;12.02;;;;;;;;;;5014286;28;20120;-75
2022/02/12 07:33:19;;;;;;;17.25;11.55;;;;;;;;;;5013161;28;20052;-76
2022/02/12 07:35:49;;;;;;;20.30;11.18;;;;;;;;;;5012867;28;20197;-76
2022/02/12 07:38:17;;;;;;;17.92;10.35;;;;;;;;;;5002277;28;20136;-74
2022/02/12 07:40:46;;;;;;;16.45;10.20;;;;;;;;;;5033683;28;20042;-74
2022/02/12 07:43:13;;;;;;;14.18;9.73;;;;;;;;;;5034137;28;20386;-72
2022/02/12 07:45:44;;;;;;;19.67;10.00;;;;;;;;;;5034067;28;20060;-76
2022/02/12 07:48:14;;;;;;;14.68;8.90;;;;;;;;;;5027159;28;20041;-72
2022/02/12 07:50:46;;;;;;;11.65;7.07;;;;;;;;;;5047856;28;20076;-76
2022/02/12 07:53:14;;;;;;;14.95;7.22;;;;;;;;;;5053599;28;20052;-73
2022/02/12 07:55:42;;;;;;;14.70;6.18;;;;;;;;;;5048146;28;20041;-75
2022/02/12 07:58:11;;;;;;;11.50;6.25;;;;;;;;;;5031917;28;20041;-77
2022/02/12 08:00:38;;;;;;;9.77;5.80;;;;;;;;;;5023096;28;20584;-78
2022/02/12 08:03:06;;;;;;;11.55;5.78;;;;;;;;;;5024263;28;20099;-76
2022/02/12 08:05:34;;;;;;;9.05;4.70;;;;;;;;;;5043153;28;20420;-76
2022/02/12 08:08:03;;;;;;;8.75;4.50;;;;;;;;;;5032604;28;20052;-75
2022/02/12 08:13:19;;;;;;;6.50;4.05;;;;;;;;;;5024527;28;20119;-75
2022/02/12 08:15:46;;;;;;;7.50;4.07;;;;;;;;;;5032974;28;20129;-75
2022/02/12 08:18:14;;;;;;;6.95;4.28;;;;;;;;;;5033418;28;20497;-73
2022/02/12 08:20:41;;;;;;;10.38;4.50;;;;;;;;;;5033298;28;20041;-74
2022/02/12 08:23:09;;;;;;;7.88;3.97;;;;;;;;;;5015870;28;20034;-76
2022/02/12 08:25:37;;;;;;;8.32;4.13;;;;;;;;;;5032939;28;20046;-75
2022/02/12 08:28:05;;;;;;;5.93;3.63;;;;;;;;;;4998878;28;20416;-74
2022/02/12 08:30:32;;;;;;;6.53;3.70;;;;;;;;;;5033331;28;20055;-75
2022/02/12 08:33:00;;;;;;;4.80;3.10;;;;;;;;;;5033229;28;20405;-75
2022/02/12 08:35:48;;;;;;;9.50;3.72;;;;;;;;;;5001875;28;20385;-79
2022/02/12 08:38:17;;;;;;;7.45;3.10;;;;;;;;;;5024698;28;20047;-74
2022/02/12 08:40:45;;;;;;;4.25;2.50;;;;;;;;;;5033052;28;20127;-75
2022/02/12 08:43:14;;;;;;;5.60;2.63;;;;;;;;;;5015213;28;20128;-75
2022/02/12 08:45:42;;;;;;;7.78;2.60;;;;;;;;;;5032840;28;20052;-73
2022/02/12 08:48:11;;;;;;;5.70;2.38;;;;;;;;;;5032560;28;20099;-75
2022/02/12 08:50:38;;;;;;;5.00;2.75;;;;;;;;;;5032074;28;20493;-74
2022/02/12 08:53:07;;;;;;;5.13;3.10;;;;;;;;;;4998400;28;20080;-74
2022/02/12 08:55:34;;;;;;;5.72;2.80;;;;;;;;;;5032756;28;20052;-75
2022/02/12 08:58:02;;;;;;;6.88;2.63;;;;;;;;;;5015284;28;20073;-75
2022/02/12 09:00:29;;;;;;;5.93;3.00;;;;;;;;;;5032281;28;20049;-75
2022/02/12 09:03:12;;;;;;;4.20;2.67;;;;;;;;;;5032223;28;20054;-74
2022/02/12 09:05:39;;;;;;;5.10;2.38;;;;;;;;;;5014915;28;20049;-76
2022/02/12 09:08:07;;;;;;;4.40;2.30;;;;;;;;;;5032176;28;20049;-75
2022/02/12 09:10:34;;;;;;;5.90;2.58;;;;;;;;;;5016944;28;20427;-73
2022/02/12 09:13:02;;;;;;;5.25;2.40;;;;;;;;;;5022546;28;20052;-74
2022/02/12 09:15:31;;;;;;;8.05;2.25;;;;;;;;;;5021103;28;20037;-75
2022/02/12 09:17:58;;;;;;;7.40;2.22;;;;;;;;;;5018911;28;20046;-74
2022/02/12 09:20:27;;;;;;;4.95;1.88;;;;;;;;;;5020504;28;20041;-75
2022/02/12 09:22:54;;;;;;;6.25;2.70;;;;;;;;;;5017542;28;20040;-76
2022/02/12 09:25:22;;;;;;;3.45;2.22;;;;;;;;;;5021669;28;20450;-77
2022/02/12 09:27:51;;;;;;;4.75;1.80;;;;;;;;;;5019604;28;20057;-78
2022/02/12 09:30:18;;;;;;;7.05;2.25;;;;;;;;;;5021311;28;20064;-78
2022/02/12 09:32:53;;;;;;;5.30;1.83;;;;;;;;;;5022133;28;20033;-77
2022/02/12 09:35:21;;;;;;;6.05;1.88;;;;;;;;;;5025826;28;20055;-73
2022/02/12 09:37:49;;;;;;;5.82;2.13;;;;;;;;;;5018605;28;20038;-78
2022/02/12 09:40:22;;;;;;;4.88;2.08;;;;;;;;;;5046017;28;20140;-82
2022/02/12 09:43:13;;;;;;;4.55;2.17;;;;;;;;;;5029158;28;20061;-79
2022/02/12 09:45:58;;;;;;;3.60;2.05;;;;;;;;;;5032320;28;20041;-75
2022/02/12 09:48:29;;;;;;;7.70;2.25;;;;;;;;;;5030868;28;20111;-75
2022/02/12 09:51:00;;;;;;;3.72;2.13;;;;;;;;;;5030465;28;20075;-79
2022/02/12 09:53:30;;;;;;;4.93;2.22;;;;;;;;;;5031060;28;20383;-79
2022/02/12 09:55:58;;;;;;;3.65;1.90;;;;;;;;;;5028063;28;20124;-78
2022/02/12 09:58:26;;;;;;;4.60;2.10;;;;;;;;;;5103021;23;20062;-75
2022/02/12 10:00:53;;;;;;;6.30;2.80;;;;;;;;;;5027571;28;20743;-80
2022/02/12 10:03:21;;;;;;;5.82;2.42;;;;;;;;;;5050676;28;20495;-71
2022/02/12 10:05:51;;;;;;;5.63;2.80;;;;;;;;;;5055805;28;20033;-82
2022/02/12 10:08:18;;;;;;;5.03;2.38;;;;;;;;;;5055653;28;20037;-83
2022/02/12 10:10:47;;;;;;;5.60;2.85;;;;;;;;;;5038380;28;20041;-81
2022/02/12 10:13:22;;;;;;;4.70;3.22;;;;;;;;;;5037560;28;20407;-75
2022/02/12 10:16:09;;;;;;;4.22;2.53;;;;;;;;;;5053867;28;20550;-74
2022/02/12 10:18:41;;;;;;;5.32;3.00;;;;;;;;;;5020239;28;20151;-72
2022/02/12 10:21:10;;;;;;;6.78;2.60;;;;;;;;;;5061135;28;20495;-72
2022/02/12 10:23:45;;;;;;;4.55;2.60;;;;;;;;;;5035523;28;20079;-71
2022/02/12 10:26:14;;;;;;;5.40;2.60;;;;;;;;;;5055259;28;20120;-73
2022/02/12 10:28:46;;;;;;;3.67;2.92;;;;;;;;;;5055445;28;20044;-75
2022/02/12 10:31:14;;;;;;;4.50;2.83;;;;;;;;;;5017895;28;20050;-74
2022/02/12 10:33:44;;;;;;;6.43;2.78;;;;;;;;;;5035551;28;20052;-73
2022/02/12 10:36:15;;;;;;;6.25;2.92;;;;;;;;;;5001356;28;20076;-72
2022/02/12 10:38:47;;;;;;;5.50;2.88;;;;;;;;;;5035043;28;20120;-74
2022/02/12 10:41:15;;;;;;;6.05;2.95;;;;;;;;;;5001847;28;20037;-79
2022/02/12 10:43:44;;;;;;;6.20;3.17;;;;;;;;;;5017557;28;20042;-73
2022/02/12 10:46:12;;;;;;;5.35;2.53;;;;;;;;;;5035327;28;20037;-73
2022/02/12 10:48:40;;;;;;;13.70;6.50;;;;;;;;;;5035347;28;20052;-71
2022/02/12 10:51:16;;;;;;;5.05;2.65;;;;;;;;;;5034989;28;20473;-74
2022/02/12 10:53:59;;;;;;;4.90;2.50;;;;;;;;;;5001414;28;20049;-75
2022/02/12 10:56:27;;;;;;;;;;;;;;;;;;5018012;28;20045;-74
2022/02/12 10:58:54;;;;;;;4.60;2.40;;;;;;;;;;5021236;28;19927;-75
2022/02/12 11:01:23;;;;;;;4.10;2.40;;;;;;;;;;5034782;28;20566;-74
2022/02/12 11:03:51;;;;;;;4.53;2.50;;;;;;;;;;5034544;28;20065;-72
2022/02/12 11:06:19;;;;;;;4.88;2.50;;;;;;;;;;5033891;28;20065;-74
2022/02/12 11:08:47;;;;;;;4.28;2.70;;;;;;;;;;5029633;28;20136;-74
2022/02/12 11:11:14;;;;;;;6.72;2.50;;;;;;;;;;5034644;28;20060;-74
2022/02/12 11:13:44;;;;;;;5.43;3.65;;;;;;;;;;5034109;28;20041;-81
2022/02/12 11:16:12;;;;;;;4.07;3.20;;;;;;;;;;5016581;28;20049;-72
2022/02/12 11:18:40;;;;;;;8.23;4.25;;;;;;;;;;5028277;28;20081;-74
2022/02/12 11:21:08;;;;;;;5.97;2.53;;;;;;;;;;5036714;28;20598;-79
2022/02/12 11:23:36;;;;;;;5.50;3.20;;;;;;;;;;5030845;28;20051;-73
2022/02/12 11:26:07;;;;;;;4.80;3.05;;;;;;;;;;5033366;28;20041;-74
2022/02/12 11:28:36;;;;;;;7.13;3.10;;;;;;;;;;5033812;28;20040;-81
2022/02/12 11:31:25;;;;;;;8.27;3.30;;;;;;;;;;5033919;28;20037;-72
2022/02/12 11:34:04;;;;;;;6.05;3.03;;;;;;;;;;5033406;28;20043;-80
2022/02/12 11:36:32;;;;;;;6.03;3.35;;;;;;;;;;5003489;28;20042;-81
2022/02/12 11:39:25;;;;;;;7.50;3.17;;;;;;;;;;5031676;28;20033;-72
2022/02/12 11:41:54;;;;;;;6.88;2.92;;;;;;;;;;5018342;28;20100;-74
2022/02/12 11:44:57;;;;;;;6.22;3.10;;;;;;;;;;5004492;28;20535;-74
2022/02/12 11:47:25;;;;;;;5.95;3.50;;;;;;;;;;5011877;28;20045;-74
2022/02/12 11:50:14;;;;;;;4.05;2.90;;;;;;;;;;5003505;28;20104;-80
2022/02/12 11:52:41;;;;;;;6.35;3.17;;;;;;;;;;5011658;28;20052;-72
2022/02/12 11:55:10;;;;;;;6.13;3.15;;;;;;;;;;5011606;28;20054;-80
2022/02/12 11:57:37;;;;;;;4.85;3.10;;;;;;;;;;5011620;28;20037;-75
2022/02/12 12:00:05;;;;;;;7.97;3.15;;;;;;;;;;5011357;28;20509;-72
2022/02/12 12:02:40;;;;;;;5.60;3.30;;;;;;;;;;4995859;28;20132;-74
2022/02/12 12:05:11;;;;;;;5.90;2.90;;;;;;;;;;4995016;28;20069;-75
2022/02/12 12:07:57;;;;;;;5.28;3.67;;;;;;;;;;4994712;28;20046;-80
2022/02/12 12:10:26;;;;;;;6.00;3.15;;;;;;;;;;5011104;28;20052;-80
2022/02/12 12:12:58;;;;;;;9.70;3.25;;;;;;;;;;4994885;28;20416;-79
2022/02/12 12:15:26;;;;;;;5.80;3.22;;;;;;;;;;4995228;28;20050;-71
2022/02/12 12:17:58;;;;;;;5.40;3.17;;;;;;;;;;4995809;28;20056;-74
2022/02/12 12:20:33;;;;;;;5.97;3.60;;;;;;;;;;4995548;28;20112;-80
2022/02/12 12:23:02;;;;;;;5.38;2.55;;;;;;;;;;5008285;28;20038;-74
2022/02/12 12:25:29;;;;;;;4.43;2.28;;;;;;;;;;5027775;28;20034;-79
2022/02/12 12:27:57;;;;;;;3.63;2.58;;;;;;;;;;5020036;28;20060;-71
2022/02/12 12:30:44;;;;;;;7.18;3.30;;;;;;;;;;5032090;28;20041;-78
2022/02/12 12:33:19;;;;;;;4.45;2.35;;;;;;;;;;4997731;28;20056;-79
2022/02/12 12:35:53;;;;;;;4.28;2.50;;;;;;;;;;5000671;28;20045;-79
2022/02/12 12:38:40;;;;;;;3.85;2.17;;;;;;;;;;5032802;28;20041;-74
2022/02/12 12:41:27;;;;;;;2.20;1.75;;;;;;;;;;5008061;28;20041;-78
2022/02/12 12:44:06;;;;;;;5.40;2.25;;;;;;;;;;5023189;28;20489;-74
2022/02/12 12:46:35;;;;;;;5.80;2.00;;;;;;;;;;5020610;28;20065;-70
2022/02/12 12:49:04;;;;;;;4.18;2.20;;;;;;;;;;5013493;28;20417;-76
2022/02/12 12:51:34;;;;;;;4.10;2.63;;;;;;;;;;5006183;28;20041;-79
2022/02/12 12:54:04;;;;;;;4.22;2.60;;;;;;;;;;5013192;28;20040;-78
2022/02/12 12:56:32;;;;;;;3.60;2.40;;;;;;;;;;5005900;28;20050;-72
2022/02/12 12:59:06;;;;;;;4.25;2.50;;;;;;;;;;5011912;28;20058;-77
2022/02/12 13:01:55;;;;;;;4.70;2.42;;;;;;;;;;5006519;28;20469;-71
2022/02/12 13:04:23;;;;;;;5.85;2.50;;;;;;;;;;5012572;28;20044;-69
2022/02/12 13:06:53;;;;;;;3.47;2.20;;;;;;;;;;5013036;28;20041;-72
2022/02/12 13:09:20;;;;;;;5.55;2.65;;;;;;;;;;5012986;28;20045;-71
2022/02/12 13:11:49;;;;;;;5.18;2.45;;;;;;;;;;5007940;28;20053;-70
2022/02/12 13:14:16;;;;;;;4.28;2.40;;;;;;;;;;4995320;28;20056;-80
2022/02/12 13:16:46;;;;;;;7.88;2.40;;;;;;;;;;5014772;28;20038;-69
2022/02/12 13:19:14;;;;;;;6.28;2.60;;;;;;;;;;5020972;28;20048;-69
2022/02/12 13:21:45;;;;;;;4.68;2.50;;;;;;;;;;5022249;28;20030;-71
2022/02/12 13:24:15;;;;;;;4.45;2.00;;;;;;;;;;5012898;28;20062;-81
2022/02/12 13:26:43;;;;;;;4.63;2.40;;;;;;;;;;5023678;28;20056;-74
2022/02/12 13:29:22;;;;;;;4.00;2.35;;;;;;;;;;5028314;28;20462;-71
2022/02/12 13:31:51;;;;;;;8.38;2.35;;;;;;;;;;5026149;28;20041;-73
2022/02/12 13:34:19;;;;;;;5.30;2.45;;;;;;;;;;5025172;28;20096;-68
2022/02/12 13:36:48;;;;;;;6.18;2.55;;;;;;;;;;5032105;28;20045;-71
2022/02/12 13:39:16;;;;;;;2.63;2.28;;;;;;;;;;5038338;28;20041;-68
2022/02/12 13:41:45;;;;;;;5.03;2.40;;;;;;;;;;5049426;28;20048;-73
2022/02/12 13:44:12;;;;;;;3.65;2.60;;;;;;;;;;5035864;28;20041;-71
2022/02/12 13:46:42;;;;;;;4.90;2.75;;;;;;;;;;5038692;28;20029;-73
2022/02/12 13:49:20;;;;;;;5.07;2.53;;;;;;;;;;5038483;28;20104;-69
2022/02/12 13:51:55;;;;;;;2.53;2.30;;;;;;;;;;5028728;28;20139;-73
2022/02/12 13:54:24;;;;;;;5.50;2.58;;;;;;;;;;5037695;28;20049;-68
2022/02/12 13:56:55;;;;;;;6.50;2.60;;;;;;;;;;5038137;28;20056;-69
2022/02/12 13:59:23;;;;;;;5.53;2.47;;;;;;;;;;5024539;28;20049;-77
2022/02/12 14:01:51;;;;;;;4.10;2.17;;;;;;;;;;5018592;28;20057;-78
2022/02/12 14:04:24;;;;;;;9.60;2.45;;;;;;;;;;4995003;28;20145;-70
2022/02/12 14:06:52;;;;;;;3.17;2.30;;;;;;;;;;5015157;28;20069;-70
2022/02/12 14:09:23;;;;;;;5.72;2.40;;;;;;;;;;5015805;28;20374;-69
2022/02/12 14:11:53;;;;;;;2.47;1.77;;;;;;;;;;5018128;28;20424;-69
2022/02/12 14:14:20;;;;;;;10.02;3.20;;;;;;;;;;4994652;28;20390;-69
2022/02/12 14:16:50;;;;;;;3.88;2.08;;;;;;;;;;5014221;28;20049;-73
2022/02/12 14:19:17;;;;;;;7.50;2.13;;;;;;;;;;5018306;28;20034;-78
2022/02/12 14:21:45;;;;;;;3.20;1.88;;;;;;;;;;5018600;28;20039;-72
2022/02/12 14:24:12;;;;;;;4.05;2.30;;;;;;;;;;5018069;28;20074;-78
2022/02/12 14:26:41;;;;;;;5.45;2.42;;;;;;;;;;5018282;28;20113;-69
2022/02/12 14:29:11;;;;;;;8.73;2.17;;;;;;;;;;4999731;28;20045;-69
2022/02/12 14:31:39;;;;;;;4.53;2.13;;;;;;;;;;5018089;28;20165;-73
2022/02/12 14:34:07;;;;;;;3.75;2.20;;;;;;;;;;5004687;28;20133;-77
2022/02/12 14:36:36;;;;;;;2.95;2.25;;;;;;;;;;5017782;28;20061;-69
2022/02/12 14:39:04;;;;;;;5.65;2.00;;;;;;;;;;4998825;28;20045;-71
2022/02/12 14:41:33;;;;;;;4.93;2.15;;;;;;;;;;4996963;28;20719;-71
2022/02/12 14:44:00;;;;;;;3.33;2.13;;;;;;;;;;5015806;28;20450;-70
2022/02/12 14:46:29;;;;;;;2.80;2.03;;;;;;;;;;4979471;28;20056;-71
2022/02/12 14:48:57;;;;;;;4.47;2.30;;;;;;;;;;5012044;28;20065;-69
2022/02/12 14:51:24;;;;;;;6.82;2.50;;;;;;;;;;4984882;28;20059;-72
2022/02/12 14:53:54;;;;;;;4.97;2.47;;;;;;;;;;5009678;28;20038;-74
2022/02/12 14:56:21;;;;;;;5.25;2.67;;;;;;;;;;4985258;28;20051;-74